sensor_id;sensor_type;location;lat;lon;timestamp;P1;durP1;ratioP1;P2;durP2;ratioP2
52386;SDS011;38317;53.084;6.960;2022-12-18T00:03:56;55.03;;;18.90;;
52386;SDS011;38317;53.084;6.960;2022-12-18T00:06:22;53.92;;;18.58;;
52386;SDS011;38317;53.084;6.960;2022-12-18T00:08:49;53.05;;;17.90;;
52386;SDS011;38317;53.084;6.960;2022-12-18T00:11:21;63.17;;;19.55;;
52386;SDS011;38317;53.084;6.960;2022-12-18T00:13:48;41.45;;;14.88;;
52386;SDS011;38317;53.084;6.960;2022-12-18T00:16:18;51.55;;;17.95;;
52386;SDS011;38317;53.084;6.960;2022-12-18T00:18:46;58.10;;;18.73;;
52386;SDS011;38317;53.084;6.960;2022-12-18T00:21:13;48.35;;;17.27;;
52386;SDS011;38317;53.084;6.960;2022-12-18T00:23:40;50.28;;;16.77;;
52386;SDS011;38317;53.084;6.960;2022-12-18T00:26:11;55.38;;;17.33;;
52386;SDS011;38317;53.084;6.960;2022-12-18T00:28:44;49.92;;;16.60;;
52386;SDS011;38317;53.084;6.960;2022-12-18T00:31:11;55.58;;;18.08;;
52386;SDS011;38317;53.084;6.960;2022-12-18T00:33:41;48.88;;;16.25;;
52386;SDS011;38317;53.084;6.960;2022-12-18T00:36:09;49.67;;;16.52;;
52386;SDS011;38317;53.084;6.960;2022-12-18T00:38:36;47.60;;;16.25;;
52386;SDS011;38317;53.084;6.960;2022-12-18T00:41:03;47.65;;;15.68;;
52386;SDS011;38317;53.084;6.960;2022-12-18T00:43:30;48.90;;;15.48;;
52386;SDS011;38317;53.084;6.960;2022-12-18T00:45:56;56.95;;;17.92;;
52386;SDS011;38317;53.084;6.960;2022-12-18T00:48:21;55.53;;;19.17;;
52386;SDS011;38317;53.084;6.960;2022-12-18T00:50:48;54.78;;;17.08;;
52386;SDS011;38317;53.084;6.960;2022-12-18T00:53:14;50.83;;;17.50;;
52386;SDS011;38317;53.084;6.960;2022-12-18T00:55:40;46.95;;;16.20;;
52386;SDS011;38317;53.084;6.960;2022-12-18T00:58:07;56.55;;;17.38;;
52386;SDS011;38317;53.084;6.960;2022-12-18T01:00:34;46.95;;;16.25;;
52386;SDS011;38317;53.084;6.960;2022-12-18T01:03:00;53.85;;;17.92;;
52386;SDS011;38317;53.084;6.960;2022-12-18T01:05:25;49.92;;;16.52;;
52386;SDS011;38317;53.084;6.960;2022-12-18T01:07:52;46.47;;;15.95;;
52386;SDS011;38317;53.084;6.960;2022-12-18T01:10:17;52.90;;;17.08;;
52386;SDS011;38317;53.084;6.960;2022-12-18T01:12:43;43.17;;;16.50;;
52386;SDS011;38317;53.084;6.960;2022-12-18T01:15:10;44.25;;;14.85;;
52386;SDS011;38317;53.084;6.960;2022-12-18T01:17:37;37.83;;;16.00;;
52386;SDS011;38317;53.084;6.960;2022-12-18T01:20:03;42.45;;;15.77;;
52386;SDS011;38317;53.084;6.960;2022-12-18T01:22:29;43.25;;;14.52;;
52386;SDS011;38317;53.084;6.960;2022-12-18T01:24:55;57.80;;;19.20;;
52386;SDS011;38317;53.084;6.960;2022-12-18T01:27:20;54.92;;;20.08;;
52386;SDS011;38317;53.084;6.960;2022-12-18T01:29:46;52.40;;;17.08;;
52386;SDS011;38317;53.084;6.960;2022-12-18T01:32:12;42.53;;;16.00;;
52386;SDS011;38317;53.084;6.960;2022-12-18T01:34:38;48.40;;;16.13;;
52386;SDS011;38317;53.084;6.960;2022-12-18T01:37:04;56.00;;;19.55;;
52386;SDS011;38317;53.084;6.960;2022-12-18T01:39:30;46.63;;;15.68;;
52386;SDS011;38317;53.084;6.960;2022-12-18T01:42:00;46.30;;;17.30;;
52386;SDS011;38317;53.084;6.960;2022-12-18T01:47:20;47.95;;;17.73;;
52386;SDS011;38317;53.084;6.960;2022-12-18T01:49:50;55.88;;;18.98;;
52386;SDS011;38317;53.084;6.960;2022-12-18T01:52:16;38.33;;;16.13;;
52386;SDS011;38317;53.084;6.960;2022-12-18T01:54:44;49.97;;;16.88;;
52386;SDS011;38317;53.084;6.960;2022-12-18T01:57:10;48.45;;;17.13;;
52386;SDS011;38317;53.084;6.960;2022-12-18T01:59:36;51.92;;;17.48;;
52386;SDS011;38317;53.084;6.960;2022-12-18T02:02:03;54.78;;;18.77;;
52386;SDS011;38317;53.084;6.960;2022-12-18T02:04:30;48.45;;;16.73;;
52386;SDS011;38317;53.084;6.960;2022-12-18T02:09:45;41.63;;;15.00;;
52386;SDS011;38317;53.084;6.960;2022-12-18T02:12:19;42.15;;;15.63;;
52386;SDS011;38317;53.084;6.960;2022-12-18T02:14:54;47.85;;;18.92;;
52386;SDS011;38317;53.084;6.960;2022-12-18T02:17:21;55.85;;;15.68;;
52386;SDS011;38317;53.084;6.960;2022-12-18T02:27:55;36.47;;;13.85;;
52386;SDS011;38317;53.084;6.960;2022-12-18T02:30:25;41.25;;;16.20;;
52386;SDS011;38317;53.084;6.960;2022-12-18T02:32:54;51.92;;;17.25;;
52386;SDS011;38317;53.084;6.960;2022-12-18T02:35:24;45.15;;;15.98;;
52386;SDS011;38317;53.084;6.960;2022-12-18T02:37:53;36.97;;;14.13;;
52386;SDS011;38317;53.084;6.960;2022-12-18T02:40:20;48.45;;;16.80;;
52386;SDS011;38317;53.084;6.960;2022-12-18T02:42:48;47.35;;;16.83;;
52386;SDS011;38317;53.084;6.960;2022-12-18T02:45:14;54.70;;;18.05;;
52386;SDS011;38317;53.084;6.960;2022-12-18T02:47:41;45.97;;;17.27;;
52386;SDS011;38317;53.084;6.960;2022-12-18T02:50:13;45.75;;;15.77;;
52386;SDS011;38317;53.084;6.960;2022-12-18T02:58:27;39.65;;;15.63;;
52386;SDS011;38317;53.084;6.960;2022-12-18T03:01:30;37.22;;;14.07;;
52386;SDS011;38317;53.084;6.960;2022-12-18T03:04:01;47.38;;;16.02;;
52386;SDS011;38317;53.084;6.960;2022-12-18T03:06:48;48.53;;;15.35;;
52386;SDS011;38317;53.084;6.960;2022-12-18T03:09:19;44.25;;;16.05;;
52386;SDS011;38317;53.084;6.960;2022-12-18T03:12:01;49.75;;;16.40;;
52386;SDS011;38317;53.084;6.960;2022-12-18T03:17:34;40.30;;;13.50;;
52386;SDS011;38317;53.084;6.960;2022-12-18T03:20:05;46.42;;;15.32;;
52386;SDS011;38317;53.084;6.960;2022-12-18T03:22:39;49.60;;;16.27;;
52386;SDS011;38317;53.084;6.960;2022-12-18T03:25:09;33.92;;;14.93;;
52386;SDS011;38317;53.084;6.960;2022-12-18T03:27:39;38.40;;;14.65;;
52386;SDS011;38317;53.084;6.960;2022-12-18T03:30:11;33.17;;;12.43;;
52386;SDS011;38317;53.084;6.960;2022-12-18T03:32:48;36.30;;;14.10;;
52386;SDS011;38317;53.084;6.960;2022-12-18T03:35:31;32.65;;;12.13;;
52386;SDS011;38317;53.084;6.960;2022-12-18T03:38:00;32.47;;;13.98;;
52386;SDS011;38317;53.084;6.960;2022-12-18T03:40:39;29.90;;;11.32;;
52386;SDS011;38317;53.084;6.960;2022-12-18T03:48:52;30.92;;;11.80;;
52386;SDS011;38317;53.084;6.960;2022-12-18T03:51:59;30.57;;;10.77;;
52386;SDS011;38317;53.084;6.960;2022-12-18T03:54:29;27.58;;;10.82;;
52386;SDS011;38317;53.084;6.960;2022-12-18T03:57:06;32.35;;;10.68;;
52386;SDS011;38317;53.084;6.960;2022-12-18T03:59:38;21.25;;;8.18;;
52386;SDS011;38317;53.084;6.960;2022-12-18T04:02:06;32.03;;;10.57;;
52386;SDS011;38317;53.084;6.960;2022-12-18T04:04:34;26.58;;;11.00;;
52386;SDS011;38317;53.084;6.960;2022-12-18T04:07:03;26.15;;;9.10;;
52386;SDS011;38317;53.084;6.960;2022-12-18T04:09:30;28.77;;;10.60;;
52386;SDS011;38317;53.084;6.960;2022-12-18T04:11:58;24.13;;;10.00;;
52386;SDS011;38317;53.084;6.960;2022-12-18T04:14:23;22.45;;;10.30;;
52386;SDS011;38317;53.084;6.960;2022-12-18T04:16:49;30.38;;;11.18;;
52386;SDS011;38317;53.084;6.960;2022-12-18T04:19:15;29.80;;;11.90;;
52386;SDS011;38317;53.084;6.960;2022-12-18T04:21:40;25.67;;;11.02;;
52386;SDS011;38317;53.084;6.960;2022-12-18T04:24:06;22.13;;;8.90;;
52386;SDS011;38317;53.084;6.960;2022-12-18T04:26:32;26.55;;;11.38;;
52386;SDS011;38317;53.084;6.960;2022-12-18T04:28:57;24.65;;;10.80;;
52386;SDS011;38317;53.084;6.960;2022-12-18T04:31:23;31.17;;;11.98;;
52386;SDS011;38317;53.084;6.960;2022-12-18T04:33:49;22.35;;;9.00;;
52386;SDS011;38317;53.084;6.960;2022-12-18T04:36:15;23.13;;;9.48;;
52386;SDS011;38317;53.084;6.960;2022-12-18T04:38:40;33.17;;;11.95;;
52386;SDS011;38317;53.084;6.960;2022-12-18T04:41:06;26.35;;;10.70;;
52386;SDS011;38317;53.084;6.960;2022-12-18T04:43:32;29.40;;;11.38;;
52386;SDS011;38317;53.084;6.960;2022-12-18T04:46:07;24.25;;;10.15;;
52386;SDS011;38317;53.084;6.960;2022-12-18T04:48:33;25.00;;;9.70;;
52386;SDS011;38317;53.084;6.960;2022-12-18T04:51:00;25.45;;;9.52;;
52386;SDS011;38317;53.084;6.960;2022-12-18T04:53:25;22.60;;;9.18;;
52386;SDS011;38317;53.084;6.960;2022-12-18T04:56:01;27.85;;;9.73;;
52386;SDS011;38317;53.084;6.960;2022-12-18T04:58:37;22.38;;;7.43;;
52386;SDS011;38317;53.084;6.960;2022-12-18T05:01:05;19.83;;;10.02;;
52386;SDS011;38317;53.084;6.960;2022-12-18T05:03:32;22.20;;;9.25;;
52386;SDS011;38317;53.084;6.960;2022-12-18T05:05:58;23.48;;;9.05;;
52386;SDS011;38317;53.084;6.960;2022-12-18T05:08:25;26.83;;;9.13;;
52386;SDS011;38317;53.084;6.960;2022-12-18T05:10:57;21.48;;;8.85;;
52386;SDS011;38317;53.084;6.960;2022-12-18T05:13:34;28.27;;;9.30;;
52386;SDS011;38317;53.084;6.960;2022-12-18T05:16:01;25.15;;;9.40;;
52386;SDS011;38317;53.084;6.960;2022-12-18T05:18:27;28.40;;;10.13;;
52386;SDS011;38317;53.084;6.960;2022-12-18T05:20:53;24.48;;;9.95;;
52386;SDS011;38317;53.084;6.960;2022-12-18T05:23:20;24.80;;;8.40;;
52386;SDS011;38317;53.084;6.960;2022-12-18T05:26:05;20.85;;;9.27;;
52386;SDS011;38317;53.084;6.960;2022-12-18T05:28:33;22.95;;;9.10;;
52386;SDS011;38317;53.084;6.960;2022-12-18T05:31:00;26.10;;;9.63;;
52386;SDS011;38317;53.084;6.960;2022-12-18T05:33:29;21.48;;;9.00;;
52386;SDS011;38317;53.084;6.960;2022-12-18T05:35:58;22.17;;;8.50;;
52386;SDS011;38317;53.084;6.960;2022-12-18T05:38:26;22.98;;;8.23;;
52386;SDS011;38317;53.084;6.960;2022-12-18T05:40:52;25.15;;;9.00;;
52386;SDS011;38317;53.084;6.960;2022-12-18T05:43:19;26.52;;;9.88;;
52386;SDS011;38317;53.084;6.960;2022-12-18T05:45:47;22.00;;;9.32;;
52386;SDS011;38317;53.084;6.960;2022-12-18T05:48:13;22.30;;;8.70;;
52386;SDS011;38317;53.084;6.960;2022-12-18T05:50:40;18.77;;;7.13;;
52386;SDS011;38317;53.084;6.960;2022-12-18T05:53:07;23.75;;;8.65;;
52386;SDS011;38317;53.084;6.960;2022-12-18T05:55:36;23.55;;;10.70;;
52386;SDS011;38317;53.084;6.960;2022-12-18T05:58:03;18.45;;;7.63;;
52386;SDS011;38317;53.084;6.960;2022-12-18T06:00:30;23.30;;;8.88;;
52386;SDS011;38317;53.084;6.960;2022-12-18T06:02:58;17.98;;;7.93;;
52386;SDS011;38317;53.084;6.960;2022-12-18T06:05:24;16.67;;;8.07;;
52386;SDS011;38317;53.084;6.960;2022-12-18T06:07:50;19.00;;;8.15;;
52386;SDS011;38317;53.084;6.960;2022-12-18T06:10:16;22.48;;;8.77;;
52386;SDS011;38317;53.084;6.960;2022-12-18T06:12:42;22.42;;;8.30;;
52386;SDS011;38317;53.084;6.960;2022-12-18T06:15:08;21.58;;;8.55;;
52386;SDS011;38317;53.084;6.960;2022-12-18T06:17:35;26.35;;;8.68;;
52386;SDS011;38317;53.084;6.960;2022-12-18T06:20:02;23.13;;;8.70;;
52386;SDS011;38317;53.084;6.960;2022-12-18T06:22:30;23.23;;;9.02;;
52386;SDS011;38317;53.084;6.960;2022-12-18T06:24:56;14.77;;;7.20;;
52386;SDS011;38317;53.084;6.960;2022-12-18T06:27:22;22.02;;;9.15;;
52386;SDS011;38317;53.084;6.960;2022-12-18T06:29:48;25.23;;;8.40;;
52386;SDS011;38317;53.084;6.960;2022-12-18T06:32:13;19.45;;;7.70;;
52386;SDS011;38317;53.084;6.960;2022-12-18T06:34:39;19.02;;;8.07;;
52386;SDS011;38317;53.084;6.960;2022-12-18T06:37:05;21.08;;;7.50;;
52386;SDS011;38317;53.084;6.960;2022-12-18T06:39:31;21.70;;;8.40;;
52386;SDS011;38317;53.084;6.960;2022-12-18T06:41:57;16.10;;;7.32;;
52386;SDS011;38317;53.084;6.960;2022-12-18T06:44:22;21.70;;;7.32;;
52386;SDS011;38317;53.084;6.960;2022-12-18T06:46:48;19.85;;;7.85;;
52386;SDS011;38317;53.084;6.960;2022-12-18T06:49:14;15.98;;;7.65;;
52386;SDS011;38317;53.084;6.960;2022-12-18T06:51:41;18.60;;;8.32;;
52386;SDS011;38317;53.084;6.960;2022-12-18T06:54:07;18.58;;;7.80;;
52386;SDS011;38317;53.084;6.960;2022-12-18T06:56:32;17.42;;;7.00;;
52386;SDS011;38317;53.084;6.960;2022-12-18T06:58:58;14.13;;;7.28;;
52386;SDS011;38317;53.084;6.960;2022-12-18T07:01:24;15.57;;;7.47;;
52386;SDS011;38317;53.084;6.960;2022-12-18T07:03:53;18.75;;;8.10;;
52386;SDS011;38317;53.084;6.960;2022-12-18T07:06:21;15.82;;;7.07;;
52386;SDS011;38317;53.084;6.960;2022-12-18T07:08:48;19.02;;;7.10;;
52386;SDS011;38317;53.084;6.960;2022-12-18T07:11:15;15.95;;;6.72;;
52386;SDS011;38317;53.084;6.960;2022-12-18T07:13:41;18.42;;;7.63;;
52386;SDS011;38317;53.084;6.960;2022-12-18T07:16:08;19.85;;;8.18;;
52386;SDS011;38317;53.084;6.960;2022-12-18T07:18:36;19.30;;;8.57;;
52386;SDS011;38317;53.084;6.960;2022-12-18T07:21:02;16.58;;;7.30;;
52386;SDS011;38317;53.084;6.960;2022-12-18T07:23:32;16.05;;;6.70;;
52386;SDS011;38317;53.084;6.960;2022-12-18T07:26:09;17.63;;;7.78;;
52386;SDS011;38317;53.084;6.960;2022-12-18T07:28:37;16.55;;;7.05;;
52386;SDS011;38317;53.084;6.960;2022-12-18T07:31:07;16.70;;;6.47;;
52386;SDS011;38317;53.084;6.960;2022-12-18T07:33:37;15.30;;;7.22;;
52386;SDS011;38317;53.084;6.960;2022-12-18T07:36:04;15.90;;;7.53;;
52386;SDS011;38317;53.084;6.960;2022-12-18T07:38:31;15.80;;;7.32;;
52386;SDS011;38317;53.084;6.960;2022-12-18T07:41:01;16.33;;;7.13;;
52386;SDS011;38317;53.084;6.960;2022-12-18T07:43:27;15.48;;;6.45;;
52386;SDS011;38317;53.084;6.960;2022-12-18T07:45:53;17.23;;;7.90;;
52386;SDS011;38317;53.084;6.960;2022-12-18T07:48:19;19.52;;;6.90;;
52386;SDS011;38317;53.084;6.960;2022-12-18T07:50:45;20.90;;;6.72;;
52386;SDS011;38317;53.084;6.960;2022-12-18T07:53:11;18.55;;;6.88;;
52386;SDS011;38317;53.084;6.960;2022-12-18T07:55:37;19.13;;;6.28;;
52386;SDS011;38317;53.084;6.960;2022-12-18T07:58:03;17.25;;;6.53;;
52386;SDS011;38317;53.084;6.960;2022-12-18T08:00:30;14.65;;;5.95;;
52386;SDS011;38317;53.084;6.960;2022-12-18T08:02:56;18.67;;;7.30;;
52386;SDS011;38317;53.084;6.960;2022-12-18T08:05:22;15.30;;;6.47;;
52386;SDS011;38317;53.084;6.960;2022-12-18T08:07:48;11.52;;;5.18;;
52386;SDS011;38317;53.084;6.960;2022-12-18T08:10:14;20.52;;;7.28;;
52386;SDS011;38317;53.084;6.960;2022-12-18T08:12:40;12.98;;;4.85;;
52386;SDS011;38317;53.084;6.960;2022-12-18T08:15:06;13.75;;;5.82;;
52386;SDS011;38317;53.084;6.960;2022-12-18T08:17:32;15.02;;;6.38;;
52386;SDS011;38317;53.084;6.960;2022-12-18T08:19:58;12.52;;;5.90;;
52386;SDS011;38317;53.084;6.960;2022-12-18T08:22:24;13.25;;;6.10;;
52386;SDS011;38317;53.084;6.960;2022-12-18T08:24:49;15.52;;;6.25;;
52386;SDS011;38317;53.084;6.960;2022-12-18T08:27:15;19.25;;;6.93;;
52386;SDS011;38317;53.084;6.960;2022-12-18T08:29:41;13.35;;;5.93;;
52386;SDS011;38317;53.084;6.960;2022-12-18T08:32:07;13.13;;;6.00;;
52386;SDS011;38317;53.084;6.960;2022-12-18T08:34:33;15.52;;;6.45;;
52386;SDS011;38317;53.084;6.960;2022-12-18T08:36:59;14.38;;;5.70;;
52386;SDS011;38317;53.084;6.960;2022-12-18T08:39:24;15.05;;;6.32;;
52386;SDS011;38317;53.084;6.960;2022-12-18T08:41:50;10.70;;;5.20;;
52386;SDS011;38317;53.084;6.960;2022-12-18T08:44:34;14.80;;;5.65;;
52386;SDS011;38317;53.084;6.960;2022-12-18T08:47:03;10.95;;;4.70;;
52386;SDS011;38317;53.084;6.960;2022-12-18T08:49:30;12.15;;;5.28;;
52386;SDS011;38317;53.084;6.960;2022-12-18T08:51:56;11.40;;;5.50;;
52386;SDS011;38317;53.084;6.960;2022-12-18T08:54:24;14.25;;;5.25;;
52386;SDS011;38317;53.084;6.960;2022-12-18T08:56:51;13.15;;;5.00;;
52386;SDS011;38317;53.084;6.960;2022-12-18T08:59:17;11.27;;;4.82;;
52386;SDS011;38317;53.084;6.960;2022-12-18T09:01:43;10.98;;;5.53;;
52386;SDS011;38317;53.084;6.960;2022-12-18T09:04:10;11.65;;;5.35;;
52386;SDS011;38317;53.084;6.960;2022-12-18T09:06:36;10.27;;;5.43;;
52386;SDS011;38317;53.084;6.960;2022-12-18T09:09:03;10.30;;;4.38;;
52386;SDS011;38317;53.084;6.960;2022-12-18T09:11:30;11.18;;;5.22;;
52386;SDS011;38317;53.084;6.960;2022-12-18T09:13:57;10.57;;;4.70;;
52386;SDS011;38317;53.084;6.960;2022-12-18T09:16:24;18.55;;;6.43;;
52386;SDS011;38317;53.084;6.960;2022-12-18T09:18:53;13.70;;;6.05;;
52386;SDS011;38317;53.084;6.960;2022-12-18T09:21:24;14.30;;;6.07;;
52386;SDS011;38317;53.084;6.960;2022-12-18T09:23:52;9.95;;;5.10;;
52386;SDS011;38317;53.084;6.960;2022-12-18T09:26:19;10.55;;;4.35;;
52386;SDS011;38317;53.084;6.960;2022-12-18T09:28:46;12.77;;;4.82;;
52386;SDS011;38317;53.084;6.960;2022-12-18T09:31:12;13.13;;;6.15;;
52386;SDS011;38317;53.084;6.960;2022-12-18T09:33:38;10.10;;;5.15;;
52386;SDS011;38317;53.084;6.960;2022-12-18T09:36:05;8.93;;;4.80;;
52386;SDS011;38317;53.084;6.960;2022-12-18T09:38:32;12.07;;;4.63;;
52386;SDS011;38317;53.084;6.960;2022-12-18T09:41:00;12.80;;;4.80;;
52386;SDS011;38317;53.084;6.960;2022-12-18T09:46:07;13.63;;;5.95;;
52386;SDS011;38317;53.084;6.960;2022-12-18T09:48:40;9.73;;;5.15;;
52386;SDS011;38317;53.084;6.960;2022-12-18T09:51:18;12.65;;;5.20;;
52386;SDS011;38317;53.084;6.960;2022-12-18T09:53:57;12.45;;;5.40;;
52386;SDS011;38317;53.084;6.960;2022-12-18T09:56:28;13.52;;;5.20;;
52386;SDS011;38317;53.084;6.960;2022-12-18T09:59:00;13.95;;;5.63;;
52386;SDS011;38317;53.084;6.960;2022-12-18T10:01:28;10.18;;;4.43;;
52386;SDS011;38317;53.084;6.960;2022-12-18T10:03:55;13.00;;;5.47;;
52386;SDS011;38317;53.084;6.960;2022-12-18T10:06:45;7.53;;;4.25;;
52386;SDS011;38317;53.084;6.960;2022-12-18T10:17:44;7.82;;;3.95;;
52386;SDS011;38317;53.084;6.960;2022-12-18T10:25:31;7.68;;;3.55;;
52386;SDS011;38317;53.084;6.960;2022-12-18T10:28:18;9.60;;;4.82;;
52386;SDS011;38317;53.084;6.960;2022-12-18T10:30:45;7.05;;;3.15;;
52386;SDS011;38317;53.084;6.960;2022-12-18T10:33:16;8.95;;;3.70;;
52386;SDS011;38317;53.084;6.960;2022-12-18T10:35:43;8.65;;;4.03;;
52386;SDS011;38317;53.084;6.960;2022-12-18T10:40:58;10.13;;;3.63;;
52386;SDS011;38317;53.084;6.960;2022-12-18T10:43:47;6.93;;;3.22;;
52386;SDS011;38317;53.084;6.960;2022-12-18T10:46:14;9.13;;;3.45;;
52386;SDS011;38317;53.084;6.960;2022-12-18T10:48:53;8.07;;;3.53;;
52386;SDS011;38317;53.084;6.960;2022-12-18T10:51:21;7.68;;;3.13;;
52386;SDS011;38317;53.084;6.960;2022-12-18T10:54:00;8.77;;;3.67;;
52386;SDS011;38317;53.084;6.960;2022-12-18T10:56:27;7.43;;;3.17;;
52386;SDS011;38317;53.084;6.960;2022-12-18T10:58:55;6.97;;;3.22;;
52386;SDS011;38317;53.084;6.960;2022-12-18T11:01:24;8.60;;;3.47;;
52386;SDS011;38317;53.084;6.960;2022-12-18T11:06:16;7.55;;;2.70;;
52386;SDS011;38317;53.084;6.960;2022-12-18T11:08:46;9.25;;;3.58;;
52386;SDS011;38317;53.084;6.960;2022-12-18T11:11:26;7.07;;;2.97;;
52386;SDS011;38317;53.084;6.960;2022-12-18T11:14:03;7.45;;;2.78;;
52386;SDS011;38317;53.084;6.960;2022-12-18T11:16:34;7.35;;;3.03;;
52386;SDS011;38317;53.084;6.960;2022-12-18T11:21:49;8.88;;;2.83;;
52386;SDS011;38317;53.084;6.960;2022-12-18T11:24:19;8.25;;;3.58;;
52386;SDS011;38317;53.084;6.960;2022-12-18T11:26:49;6.00;;;2.85;;
52386;SDS011;38317;53.084;6.960;2022-12-18T11:29:16;7.88;;;3.22;;
52386;SDS011;38317;53.084;6.960;2022-12-18T11:31:43;7.90;;;2.90;;
52386;SDS011;38317;53.084;6.960;2022-12-18T11:34:23;8.70;;;3.20;;
52386;SDS011;38317;53.084;6.960;2022-12-18T11:36:53;7.55;;;2.97;;
52386;SDS011;38317;53.084;6.960;2022-12-18T11:44:38;6.70;;;2.83;;
52386;SDS011;38317;53.084;6.960;2022-12-18T11:47:28;9.20;;;3.38;;
52386;SDS011;38317;53.084;6.960;2022-12-18T11:50:05;8.18;;;3.45;;
52386;SDS011;38317;53.084;6.960;2022-12-18T11:52:39;8.60;;;3.20;;
52386;SDS011;38317;53.084;6.960;2022-12-18T12:00:40;8.60;;;3.78;;
52386;SDS011;38317;53.084;6.960;2022-12-18T12:14:12;10.48;;;3.80;;
52386;SDS011;38317;53.084;6.960;2022-12-18T12:28:38;7.00;;;2.85;;
52386;SDS011;38317;53.084;6.960;2022-12-18T12:31:41;9.13;;;3.45;;
52386;SDS011;38317;53.084;6.960;2022-12-18T12:34:25;6.80;;;3.08;;
52386;SDS011;38317;53.084;6.960;2022-12-18T12:39:36;7.80;;;3.03;;
52386;SDS011;38317;53.084;6.960;2022-12-18T12:42:05;5.60;;;2.65;;
52386;SDS011;38317;53.084;6.960;2022-12-18T12:45:11;7.10;;;3.17;;
52386;SDS011;38317;53.084;6.960;2022-12-18T12:47:47;9.07;;;3.33;;
52386;SDS011;38317;53.084;6.960;2022-12-18T12:50:17;8.27;;;3.25;;
52386;SDS011;38317;53.084;6.960;2022-12-18T12:52:46;7.80;;;3.40;;
52386;SDS011;38317;53.084;6.960;2022-12-18T12:55:24;9.82;;;3.53;;
52386;SDS011;38317;53.084;6.960;2022-12-18T13:00:52;5.93;;;2.72;;
52386;SDS011;38317;53.084;6.960;2022-12-18T13:06:23;8.07;;;3.50;;
52386;SDS011;38317;53.084;6.960;2022-12-18T13:09:10;8.07;;;3.70;;
52386;SDS011;38317;53.084;6.960;2022-12-18T13:11:40;8.82;;;4.07;;
52386;SDS011;38317;53.084;6.960;2022-12-18T13:14:30;7.55;;;3.63;;
52386;SDS011;38317;53.084;6.960;2022-12-18T13:19:48;8.27;;;4.03;;
52386;SDS011;38317;53.084;6.960;2022-12-18T13:22:46;9.23;;;4.07;;
52386;SDS011;38317;53.084;6.960;2022-12-18T13:25:33;9.43;;;3.83;;
52386;SDS011;38317;53.084;6.960;2022-12-18T13:28:06;8.90;;;3.58;;
52386;SDS011;38317;53.084;6.960;2022-12-18T13:41:41;8.98;;;2.97;;
52386;SDS011;38317;53.084;6.960;2022-12-18T13:43:53;8.90;;;3.50;;
52386;SDS011;38317;53.084;6.960;2022-12-18T13:46:29;7.05;;;3.58;;
52386;SDS011;38317;53.084;6.960;2022-12-18T13:49:41;8.65;;;3.60;;
52386;SDS011;38317;53.084;6.960;2022-12-18T13:52:02;10.60;;;3.80;;
52386;SDS011;38317;53.084;6.960;2022-12-18T13:54:40;9.23;;;3.85;;
52386;SDS011;38317;53.084;6.960;2022-12-18T13:57:27;9.50;;;3.58;;
52386;SDS011;38317;53.084;6.960;2022-12-18T14:02:47;9.35;;;3.67;;
52386;SDS011;38317;53.084;6.960;2022-12-18T14:05:27;8.18;;;3.78;;
52386;SDS011;38317;53.084;6.960;2022-12-18T14:07:55;9.45;;;4.05;;
52386;SDS011;38317;53.084;6.960;2022-12-18T14:10:26;8.98;;;3.53;;
52386;SDS011;38317;53.084;6.960;2022-12-18T14:12:52;8.43;;;3.67;;
52386;SDS011;38317;53.084;6.960;2022-12-18T14:17:51;7.78;;;3.45;;
52386;SDS011;38317;53.084;6.960;2022-12-18T14:20:19;9.77;;;3.85;;
52386;SDS011;38317;53.084;6.960;2022-12-18T14:22:46;8.48;;;4.03;;
52386;SDS011;38317;53.084;6.960;2022-12-18T14:25:23;6.65;;;3.15;;
52386;SDS011;38317;53.084;6.960;2022-12-18T14:35:34;8.40;;;3.92;;
52386;SDS011;38317;53.084;6.960;2022-12-18T14:40:46;9.98;;;4.13;;
52386;SDS011;38317;53.084;6.960;2022-12-18T14:43:12;9.50;;;4.15;;
52386;SDS011;38317;53.084;6.960;2022-12-18T14:45:42;8.57;;;3.67;;
52386;SDS011;38317;53.084;6.960;2022-12-18T14:48:14;11.35;;;4.28;;
52386;SDS011;38317;53.084;6.960;2022-12-18T14:50:41;8.65;;;4.38;;
52386;SDS011;38317;53.084;6.960;2022-12-18T14:53:20;9.57;;;4.25;;
52386;SDS011;38317;53.084;6.960;2022-12-18T14:55:52;9.60;;;4.65;;
52386;SDS011;38317;53.084;6.960;2022-12-18T14:58:18;9.30;;;3.78;;
52386;SDS011;38317;53.084;6.960;2022-12-18T15:00:44;10.30;;;4.45;;
52386;SDS011;38317;53.084;6.960;2022-12-18T15:03:10;8.40;;;3.78;;
52386;SDS011;38317;53.084;6.960;2022-12-18T15:05:41;8.55;;;3.58;;
52386;SDS011;38317;53.084;6.960;2022-12-18T15:08:24;8.38;;;4.03;;
52386;SDS011;38317;53.084;6.960;2022-12-18T15:10:59;11.70;;;5.22;;
52386;SDS011;38317;53.084;6.960;2022-12-18T15:13:25;9.35;;;3.90;;
52386;SDS011;38317;53.084;6.960;2022-12-18T15:15:51;11.07;;;3.90;;
52386;SDS011;38317;53.084;6.960;2022-12-18T15:18:40;9.35;;;4.35;;
52386;SDS011;38317;53.084;6.960;2022-12-18T15:21:08;8.98;;;4.35;;
52386;SDS011;38317;53.084;6.960;2022-12-18T15:23:36;8.38;;;3.90;;
52386;SDS011;38317;53.084;6.960;2022-12-18T15:26:11;9.38;;;4.22;;
52386;SDS011;38317;53.084;6.960;2022-12-18T15:33:39;13.18;;;5.13;;
52386;SDS011;38317;53.084;6.960;2022-12-18T15:36:12;9.03;;;4.37;;
52386;SDS011;38317;53.084;6.960;2022-12-18T15:38:39;9.10;;;4.65;;
52386;SDS011;38317;53.084;6.960;2022-12-18T15:41:05;8.48;;;3.70;;
52386;SDS011;38317;53.084;6.960;2022-12-18T15:43:34;10.00;;;3.55;;
52386;SDS011;38317;53.084;6.960;2022-12-18T15:46:04;10.00;;;4.13;;
52386;SDS011;38317;53.084;6.960;2022-12-18T15:48:33;9.80;;;4.05;;
52386;SDS011;38317;53.084;6.960;2022-12-18T15:51:00;9.35;;;4.32;;
52386;SDS011;38317;53.084;6.960;2022-12-18T15:53:30;10.77;;;4.65;;
52386;SDS011;38317;53.084;6.960;2022-12-18T15:55:58;10.05;;;4.57;;
52386;SDS011;38317;53.084;6.960;2022-12-18T15:58:42;10.02;;;3.85;;
52386;SDS011;38317;53.084;6.960;2022-12-18T16:01:09;11.63;;;4.53;;
52386;SDS011;38317;53.084;6.960;2022-12-18T16:03:35;18.45;;;4.97;;
52386;SDS011;38317;53.084;6.960;2022-12-18T16:06:01;10.98;;;4.68;;
52386;SDS011;38317;53.084;6.960;2022-12-18T16:08:28;10.65;;;4.50;;
52386;SDS011;38317;53.084;6.960;2022-12-18T16:10:55;9.57;;;4.30;;
52386;SDS011;38317;53.084;6.960;2022-12-18T16:13:21;9.68;;;4.35;;
52386;SDS011;38317;53.084;6.960;2022-12-18T16:15:47;11.10;;;4.68;;
52386;SDS011;38317;53.084;6.960;2022-12-18T16:18:13;8.85;;;3.97;;
52386;SDS011;38317;53.084;6.960;2022-12-18T16:20:39;11.57;;;4.55;;
52386;SDS011;38317;53.084;6.960;2022-12-18T16:23:05;8.65;;;4.28;;
52386;SDS011;38317;53.084;6.960;2022-12-18T16:25:31;11.20;;;5.65;;
52386;SDS011;38317;53.084;6.960;2022-12-18T16:27:57;19.45;;;7.72;;
52386;SDS011;38317;53.084;6.960;2022-12-18T16:30:27;16.13;;;6.50;;
52386;SDS011;38317;53.084;6.960;2022-12-18T16:32:55;18.60;;;7.70;;
52386;SDS011;38317;53.084;6.960;2022-12-18T16:35:22;14.07;;;6.25;;
52386;SDS011;38317;53.084;6.960;2022-12-18T16:37:48;11.63;;;4.93;;
52386;SDS011;38317;53.084;6.960;2022-12-18T16:40:14;13.13;;;4.60;;
52386;SDS011;38317;53.084;6.960;2022-12-18T16:42:42;10.07;;;4.35;;
52386;SDS011;38317;53.084;6.960;2022-12-18T16:45:10;11.65;;;4.47;;
52386;SDS011;38317;53.084;6.960;2022-12-18T16:47:41;11.25;;;4.13;;
52386;SDS011;38317;53.084;6.960;2022-12-18T16:50:07;8.23;;;3.63;;
52386;SDS011;38317;53.084;6.960;2022-12-18T16:52:34;8.55;;;3.63;;
52386;SDS011;38317;53.084;6.960;2022-12-18T16:55:00;8.70;;;3.83;;
52386;SDS011;38317;53.084;6.960;2022-12-18T16:57:26;9.82;;;3.67;;
52386;SDS011;38317;53.084;6.960;2022-12-18T16:59:52;7.93;;;3.40;;